Time;durP1;ratioP1;P1;durP2;ratioP2;P2;SDS_P1;SDS_P2;PMS_P1;PMS_P2;Temp;Humidity;BMP_temperature;BMP_pressure;BME280_temperature;BME280_humidity;BME280_pressure;Samples;Min_cycle;Max_cycle;Signal;HPM_P1;HPM_P2
2022/04/06 00:04:23;;;;;;;;;;;;;;;20.54;31.84;95004.56;10498166;28;1910;-56
2022/04/06 00:09:23;;;;;;;;;;;;;;;20.54;32.05;94991.41;10491630;28;1805;-51
2022/04/06 00:14:24;;;;;;;;;;;;;;;20.56;31.79;94995.31;10485611;28;1849;-52
2022/04/06 00:19:24;;;;;;;;;;;;;;;20.57;31.64;94994.22;10484235;28;2010;-52
2022/04/06 00:24:24;;;;;;;;;;;;;;;20.56;31.72;94986.63;10524081;28;1890;-55
2022/04/06 00:29:25;;;;;;;;;;;;;;;20.54;31.94;94992.19;10487572;28;1810;-57
2022/04/06 00:39:45;;;;;;;;;;;;;;;20.58;31.73;94993.16;10489101;28;1817;-53
2022/04/06 00:44:46;;;;;;;;;;;;;;;20.61;31.62;94983.91;10512401;28;1909;-56
2022/04/06 00:49:46;;;;;;;;;;;;;;;20.58;31.59;94981.84;10501135;28;2282;-55
2022/04/06 00:54:47;;;;;;;;;;;;;;;20.58;31.72;94976.59;10498390;28;1918;-57
2022/04/06 00:59:47;;;;;;;;;;;;;;;20.59;31.64;94970.22;10496046;28;1951;-55
2022/04/06 01:04:47;;;;;;;;;;;;;;;20.58;31.47;94976.59;10496794;28;2039;-57
2022/04/06 01:09:47;;;;;;;;;;;;;;;20.62;31.43;94975.72;10514209;28;1925;-51
2022/04/06 01:14:48;;;;;;;;;;;;;;;20.60;31.42;94967.31;10503696;28;1858;-55
2022/04/06 01:19:48;;;;;;;;;;;;;;;20.59;31.45;94962.31;10478444;28;1893;-57
2022/04/06 01:24:49;;;;;;;;;;;;;;;20.61;31.38;94960.97;10497876;28;2010;-55
2022/04/06 01:29:51;;;;;;;;;;;;;;;20.60;31.47;94969.97;10515981;28;1898;-56
2022/04/06 01:34:56;;;;;;;;;;;;;;;20.59;31.44;94965.75;10509040;28;1873;-56
2022/04/06 01:39:56;;;;;;;;;;;;;;;20.58;31.13;94960.78;10487819;28;1876;-52
2022/04/06 01:44:58;;;;;;;;;;;;;;;20.60;31.10;94953.38;10484972;28;1913;-54
2022/04/06 01:55:17;;;;;;;;;;;;;;;20.61;31.32;94947.81;10488565;28;2030;-53
2022/04/06 02:00:18;;;;;;;;;;;;;;;20.60;31.18;94937.56;10508935;28;1963;-53
2022/04/06 02:05:19;;;;;;;;;;;;;;;20.61;31.06;94933.88;10492376;28;1983;-50
2022/04/06 02:10:20;;;;;;;;;;;;;;;20.59;31.05;94936.78;10497830;28;1930;-53
2022/04/06 02:15:20;;;;;;;;;;;;;;;20.59;31.19;94928.09;10508641;28;2357;-55
2022/04/06 02:20:20;;;;;;;;;;;;;;;20.57;31.34;94927.59;10511158;28;1910;-53
2022/04/06 02:25:22;;;;;;;;;;;;;;;20.59;31.23;94931.53;10506166;28;1983;-51
2022/04/06 02:30:22;;;;;;;;;;;;;;;20.60;31.21;94922.56;10509588;28;2212;-52
2022/04/06 02:35:22;;;;;;;;;;;;;;;20.58;31.16;94923.91;10505546;28;1872;-55
2022/04/06 02:40:23;;;;;;;;;;;;;;;20.58;31.18;94916.03;10507803;28;1901;-51
2022/04/06 02:45:23;;;;;;;;;;;;;;;20.57;30.87;94912.59;10470910;28;2027;-53
2022/04/06 02:50:23;;;;;;;;;;;;;;;20.57;30.94;94907.34;10489381;28;1871;-54
2022/04/06 02:55:25;;;;;;;;;;;;;;;20.59;31.10;94905.19;10515286;28;1893;-55
2022/04/06 03:00:26;;;;;;;;;;;;;;;20.57;30.88;94891.53;10488835;28;1856;-53
2022/04/06 03:05:26;;;;;;;;;;;;;;;20.56;30.95;94890.00;10498559;28;2872;-53
2022/04/06 03:10:27;;;;;;;;;;;;;;;20.55;30.97;94888.41;10494662;28;1821;-53
2022/04/06 03:15:27;;;;;;;;;;;;;;;20.58;30.80;94881.78;10501403;28;2018;-52
2022/04/06 03:20:28;;;;;;;;;;;;;;;20.55;30.95;94885.78;10493582;28;2034;-55
2022/04/06 03:25:28;;;;;;;;;;;;;;;20.57;30.95;94888.13;10498427;28;2012;-55
2022/04/06 03:30:28;;;;;;;;;;;;;;;20.58;30.72;94877.31;10496761;28;1975;-54
2022/04/06 03:35:29;;;;;;;;;;;;;;;20.60;30.83;94880.44;10514538;28;1875;-55
2022/04/06 03:40:29;;;;;;;;;;;;;;;20.59;30.69;94872.81;10499428;28;1857;-53
2022/04/06 03:45:29;;;;;;;;;;;;;;;20.60;30.97;94879.66;10497972;28;1943;-52
2022/04/06 03:50:30;;;;;;;;;;;;;;;20.57;30.84;94864.41;10496137;28;1848;-53
2022/04/06 03:55:30;;;;;;;;;;;;;;;20.54;31.05;94860.53;10495046;28;1758;-55
2022/04/06 04:00:30;;;;;;;;;;;;;;;20.56;30.70;94858.41;10511013;28;2073;-49
2022/04/06 04:05:32;;;;;;;;;;;;;;;20.53;31.03;94852.91;10514231;28;2033;-50
2022/04/06 04:10:32;;;;;;;;;;;;;;;20.56;30.88;94857.63;10515452;28;2030;-53
2022/04/06 04:15:32;;;;;;;;;;;;;;;20.53;30.96;94845.81;10511979;28;1853;-52
2022/04/06 04:20:33;;;;;;;;;;;;;;;20.56;30.89;94847.88;10512498;28;1783;-51
2022/04/06 04:25:34;;;;;;;;;;;;;;;20.54;30.80;94842.13;10510801;28;1931;-56
2022/04/06 04:30:34;;;;;;;;;;;;;;;20.49;30.95;94846.69;10497118;28;1892;-54
2022/04/06 04:35:34;;;;;;;;;;;;;;;20.50;30.84;94843.00;10490524;28;1846;-52
2022/04/06 04:40:36;;;;;;;;;;;;;;;20.46;30.94;94842.81;10493589;28;1848;-52
2022/04/06 04:45:39;;;;;;;;;;;;;;;20.47;30.85;94854.88;10509111;28;1913;-52
2022/04/06 04:50:39;;;;;;;;;;;;;;;20.45;30.88;94856.25;10491952;28;2031;-53
2022/04/06 04:55:41;;;;;;;;;;;;;;;20.48;30.84;94851.19;10511625;28;1840;-52
2022/04/06 05:00:42;;;;;;;;;;;;;;;20.45;30.94;94851.75;10490576;28;1794;-54
2022/04/06 05:05:44;;;;;;;;;;;;;;;20.46;31.31;94857.81;10504051;28;1917;-54
2022/04/06 05:10:45;;;;;;;;;;;;;;;20.47;31.07;94860.16;10488770;28;1893;-52
2022/04/06 05:15:46;;;;;;;;;;;;;;;20.52;31.06;94857.44;10483945;28;1999;-55
2022/04/06 05:20:47;;;;;;;;;;;;;;;20.52;31.10;94846.91;10507493;28;1878;-53
2022/04/06 05:25:48;;;;;;;;;;;;;;;20.48;31.17;94855.66;10488023;28;1899;-55
2022/04/06 05:30:49;;;;;;;;;;;;;;;20.48;31.13;94864.34;10490743;28;2079;-55
2022/04/06 05:35:49;;;;;;;;;;;;;;;20.47;31.22;94857.50;10487652;28;1837;-54
2022/04/06 05:40:49;;;;;;;;;;;;;;;20.50;31.18;94862.22;10485552;28;2027;-55
2022/04/06 05:45:50;;;;;;;;;;;;;;;20.49;31.77;94862.47;10483396;28;2004;-52
2022/04/06 05:50:50;;;;;;;;;;;;;;;20.49;31.88;94859.84;10492576;28;1816;-57
2022/04/06 05:55:51;;;;;;;;;;;;;;;20.51;31.99;94866.38;10510583;28;1978;-55
2022/04/06 06:00:51;;;;;;;;;;;;;;;20.46;32.37;94853.34;10508724;28;2020;-52
2022/04/06 06:05:52;;;;;;;;;;;;;;;20.43;32.04;94861.81;10497134;28;1986;-50
2022/04/06 06:10:52;;;;;;;;;;;;;;;20.48;32.23;94861.72;10500445;28;1794;-53
2022/04/06 06:15:53;;;;;;;;;;;;;;;20.44;32.51;94860.75;10501839;28;1967;-53
2022/04/06 06:20:56;;;;;;;;;;;;;;;20.47;32.38;94859.38;10506230;28;1853;-54
2022/04/06 06:25:56;;;;;;;;;;;;;;;20.46;32.48;94863.88;10486151;28;1983;-51
2022/04/06 06:31:00;;;;;;;;;;;;;;;20.46;32.56;94858.59;10505449;28;2022;-48
2022/04/06 06:36:00;;;;;;;;;;;;;;;20.46;32.55;94852.56;10505445;28;1951;-51
2022/04/06 06:41:01;;;;;;;;;;;;;;;20.48;32.57;94860.94;10484526;28;1888;-51
2022/04/06 06:46:02;;;;;;;;;;;;;;;20.51;32.36;94860.34;10512294;28;2022;-50
2022/04/06 06:51:02;;;;;;;;;;;;;;;20.49;32.53;94858.00;10496922;28;2022;-53
2022/04/06 06:56:03;;;;;;;;;;;;;;;20.56;31.95;94849.72;10511528;28;1947;-52
2022/04/06 07:01:03;;;;;;;;;;;;;;;20.57;32.02;94846.78;10514659;28;1837;-52
2022/04/06 07:06:04;;;;;;;;;;;;;;;20.60;31.60;94851.47;10519923;28;1906;-51
2022/04/06 07:11:05;;;;;;;;;;;;;;;20.61;31.84;94839.84;10489784;28;1822;-49
2022/04/06 07:16:06;;;;;;;;;;;;;;;20.57;32.58;94841.50;10491287;28;1833;-53
2022/04/06 07:21:08;;;;;;;;;;;;;;;20.60;32.65;94837.53;10484478;28;1929;-49
2022/04/06 07:26:08;;;;;;;;;;;;;;;20.66;33.22;94842.38;10512773;28;2275;-51
2022/04/06 07:31:08;;;;;;;;;;;;;;;20.72;33.10;94841.19;10494788;28;1857;-50
2022/04/06 07:36:09;;;;;;;;;;;;;;;20.73;33.32;94837.47;10493160;28;2228;-51
2022/04/06 07:41:09;;;;;;;;;;;;;;;20.75;33.35;94834.56;10479763;28;1795;-52
2022/04/06 07:46:10;;;;;;;;;;;;;;;20.81;33.38;94828.88;10499056;28;1905;-52
2022/04/06 07:51:10;;;;;;;;;;;;;;;20.81;33.28;94833.38;10505632;28;1864;-55
2022/04/06 07:56:11;;;;;;;;;;;;;;;20.84;33.46;94820.41;10508585;28;1857;-55
2022/04/06 08:01:11;;;;;;;;;;;;;;;20.86;33.03;94826.16;10510872;28;1798;-54
2022/04/06 08:06:11;;;;;;;;;;;;;;;20.91;32.99;94828.69;10510859;28;1902;-55
2022/04/06 08:11:12;;;;;;;;;;;;;;;20.93;33.06;94818.63;10519262;28;1897;-52
2022/04/06 08:16:13;;;;;;;;;;;;;;;20.98;33.07;94812.44;10509297;28;1935;-52
2022/04/06 08:21:27;;;;;;;;;;;;;;;20.99;33.24;94809.53;10513754;28;1962;-53
2022/04/06 08:26:27;;;;;;;;;;;;;;;21.03;33.00;94809.72;10494053;28;1959;-53
2022/04/06 08:31:28;;;;;;;;;;;;;;;21.04;33.07;94817.31;10488539;28;1987;-61
2022/04/06 08:36:28;;;;;;;;;;;;;;;21.10;33.11;94811.97;10469370;28;1802;-54
2022/04/06 08:41:31;;;;;;;;;;;;;;;21.11;33.29;94810.88;10506720;28;1892;-53
2022/04/06 08:46:32;;;;;;;;;;;;;;;21.13;32.75;94803.44;10508399;28;1961;-51
2022/04/06 08:51:34;;;;;;;;;;;;;;;21.13;32.96;94798.16;10499679;28;1850;-49
2022/04/06 08:56:35;;;;;;;;;;;;;;;21.17;32.95;94788.59;10489641;28;1841;-52
2022/04/06 09:01:35;;;;;;;;;;;;;;;21.18;33.29;94796.22;10507122;28;2017;-47
2022/04/06 09:06:39;;;;;;;;;;;;;;;21.22;33.03;94793.75;10513666;28;1981;-51
2022/04/06 09:11:40;;;;;;;;;;;;;;;21.18;33.46;94780.41;10510035;28;1942;-49
2022/04/06 09:16:40;;;;;;;;;;;;;;;21.19;33.55;94783.78;10508250;28;1850;-51
2022/04/06 09:21:41;;;;;;;;;;;;;;;21.19;33.65;94783.78;10507685;28;1852;-50
2022/04/06 09:26:41;;;;;;;;;;;;;;;21.16;33.67;94773.88;10510716;28;2041;-49
2022/04/06 09:31:43;;;;;;;;;;;;;;;21.19;33.73;94778.53;10502470;28;1989;-52
2022/04/06 09:36:43;;;;;;;;;;;;;;;21.21;33.81;94761.34;10505189;28;1837;-52
2022/04/06 09:42:04;;;;;;;;;;;;;;;21.21;34.06;94763.19;10489176;28;1908;-48
2022/04/06 09:52:32;;;;;;;;;;;;;;;21.22;33.91;94746.31;10503891;28;2065;-52
2022/04/06 09:57:39;;;;;;;;;;;;;;;21.25;34.15;94732.50;10484776;28;1819;-50
2022/04/06 10:02:41;;;;;;;;;;;;;;;21.23;34.36;94732.03;10510148;28;1985;-49
2022/04/06 10:07:43;;;;;;;;;;;;;;;21.27;34.36;94727.75;10491004;28;1865;-50
2022/04/06 10:12:43;;;;;;;;;;;;;;;21.29;34.21;94718.44;10508278;28;1966;-55
2022/04/06 10:17:44;;;;;;;;;;;;;;;21.28;34.39;94708.19;10498520;28;1991;-50
2022/04/06 10:22:47;;;;;;;;;;;;;;;21.28;35.12;94700.28;10486027;28;1924;-51
2022/04/06 10:27:48;;;;;;;;;;;;;;;21.25;36.20;94696.41;10490305;28;1832;-52
2022/04/06 10:32:49;;;;;;;;;;;;;;;21.27;36.89;94686.31;10483094;28;1439;-52
2022/04/06 10:37:56;;;;;;;;;;;;;;;21.26;36.76;94681.38;10502593;28;1969;-53
2022/04/06 10:42:56;;;;;;;;;;;;;;;21.23;37.12;94666.94;10490356;28;1914;-54
2022/04/06 10:48:16;;;;;;;;;;;;;;;21.22;37.40;94665.38;10492776;28;1798;-53
2022/04/06 10:53:22;;;;;;;;;;;;;;;21.21;37.05;94658.56;10492730;28;1869;-53
2022/04/06 10:58:24;;;;;;;;;;;;;;;21.16;37.49;94647.38;10509178;28;1837;-54
2022/04/06 11:03:24;;;;;;;;;;;;;;;21.12;37.18;94639.31;10492804;28;1909;-53
2022/04/06 11:14:02;;;;;;;;;;;;;;;21.12;36.39;94626.13;10500735;28;1833;-49
2022/04/06 11:19:03;;;;;;;;;;;;;;;21.04;36.41;94621.59;10508395;28;2053;-51
2022/04/06 11:24:03;;;;;;;;;;;;;;;20.99;36.51;94616.41;10519297;28;2010;-51
2022/04/06 11:29:04;;;;;;;;;;;;;;;20.97;36.25;94610.66;10513870;28;1651;-49
2022/04/06 11:34:04;;;;;;;;;;;;;;;20.95;36.08;94600.44;10498152;28;1845;-53
2022/04/06 11:39:05;;;;;;;;;;;;;;;20.95;35.82;94595.19;10494074;28;1955;-51
2022/04/06 11:44:06;;;;;;;;;;;;;;;20.89;36.05;94582.44;10488655;28;1968;-51
2022/04/06 11:49:09;;;;;;;;;;;;;;;20.89;35.54;94570.06;10499511;28;1973;-48
2022/04/06 11:54:09;;;;;;;;;;;;;;;20.88;35.80;94559.78;10499476;28;1838;-49
2022/04/06 11:59:10;;;;;;;;;;;;;;;20.88;35.85;94546.63;10494591;28;1951;-50
2022/04/06 12:04:22;;;;;;;;;;;;;;;20.84;35.60;94545.69;10511494;28;1957;-50
2022/04/06 12:09:23;;;;;;;;;;;;;;;20.82;35.55;94537.31;10508959;28;1927;-49
2022/04/06 12:14:23;;;;;;;;;;;;;;;20.81;35.54;94530.50;10496501;28;1867;-55
2022/04/06 12:19:29;;;;;;;;;;;;;;;20.86;35.54;94520.59;10475628;28;1916;-50
2022/04/06 12:24:39;;;;;;;;;;;;;;;20.82;35.31;94519.66;10495599;28;1980;-51
2022/04/06 12:29:40;;;;;;;;;;;;;;;20.81;34.98;94522.59;10508705;28;1844;-47
2022/04/06 12:34:40;;;;;;;;;;;;;;;20.76;35.50;94510.34;10504775;28;1825;-52
2022/04/06 12:39:48;;;;;;;;;;;;;;;20.72;35.39;94496.22;10489434;28;2083;-46
2022/04/06 12:44:58;;;;;;;;;;;;;;;20.71;35.28;94492.03;10486869;28;1980;-50
2022/04/06 12:50:28;;;;;;;;;;;;;;;20.67;35.14;94485.81;10496350;28;1909;-48
2022/04/06 12:55:29;;;;;;;;;;;;;;;20.65;35.26;94472.19;10490063;28;1806;-51
2022/04/06 13:00:31;;;;;;;;;;;;;;;20.62;35.19;94477.28;10507999;28;1852;-48
2022/04/06 13:05:31;;;;;;;;;;;;;;;20.65;35.19;94466.91;10513855;28;2000;-49
2022/04/06 13:10:35;;;;;;;;;;;;;;;20.65;34.92;94459.00;10513565;28;1829;-49
2022/04/06 13:15:36;;;;;;;;;;;;;;;20.62;35.12;94456.22;10512759;28;1821;-49
2022/04/06 13:20:36;;;;;;;;;;;;;;;20.66;34.88;94446.63;10484093;28;1769;-49
2022/04/06 13:25:42;;;;;;;;;;;;;;;20.65;35.38;94440.59;10505817;28;1917;-47
2022/04/06 13:30:44;;;;;;;;;;;;;;;20.67;35.14;94427.88;10512254;28;1873;-50
2022/04/06 13:35:49;;;;;;;;;;;;;;;20.71;34.88;94425.44;10513211;28;2000;-49
2022/04/06 13:40:49;;;;;;;;;;;;;;;20.74;34.94;94420.34;10486873;28;2074;-50
2022/04/06 13:45:49;;;;;;;;;;;;;;;20.78;34.89;94423.13;10510953;28;1914;-53
2022/04/06 13:50:51;;;;;;;;;;;;;;;20.76;34.80;94410.25;10508439;28;1786;-54
2022/04/06 13:55:51;;;;;;;;;;;;;;;20.72;35.13;94400.66;10504237;28;2002;-53
2022/04/06 14:00:52;;;;;;;;;;;;;;;20.76;34.94;94399.72;10504847;28;1825;-51
2022/04/06 14:05:55;;;;;;;;;;;;;;;20.79;34.89;94387.81;10504853;28;2040;-47
2022/04/06 14:10:55;;;;;;;;;;;;;;;20.87;35.67;94376.53;10490183;28;2221;-50
2022/04/06 14:15:56;;;;;;;;;;;;;;;20.93;36.27;94388.47;10504350;28;1939;-54
2022/04/06 14:20:57;;;;;;;;;;;;;;;20.93;36.43;94368.16;10484122;28;1806;-53
2022/04/06 14:25:57;;;;;;;;;;;;;;;20.94;36.46;94369.69;10489027;28;1912;-52
2022/04/06 14:31:01;;;;;;;;;;;;;;;20.97;35.98;94366.47;10500580;28;1868;-53
2022/04/06 14:36:03;;;;;;;;;;;;;;;21.00;35.78;94360.56;10510587;28;1877;-52
2022/04/06 14:41:07;;;;;;;;;;;;;;;21.02;35.60;94355.00;10504055;28;2011;-54
2022/04/06 14:46:08;;;;;;;;;;;;;;;21.03;35.50;94357.34;10488489;28;2022;-51
2022/04/06 14:51:09;;;;;;;;;;;;;;;21.03;35.09;94346.81;10471000;28;1853;-53
2022/04/06 14:56:10;;;;;;;;;;;;;;;21.01;35.11;94337.63;10510640;28;1821;-52
2022/04/06 15:01:11;;;;;;;;;;;;;;;21.01;35.00;94338.41;10506639;28;1864;-52
2022/04/06 15:06:11;;;;;;;;;;;;;;;21.04;34.85;94337.81;10507210;28;2034;-53
2022/04/06 15:11:11;;;;;;;;;;;;;;;21.05;35.00;94335.97;10516762;28;2023;-54
2022/04/06 15:16:13;;;;;;;;;;;;;;;21.04;34.51;94329.16;10511893;28;1920;-50
2022/04/06 15:21:13;;;;;;;;;;;;;;;21.04;34.24;94327.28;10496956;28;2014;-53
2022/04/06 15:26:13;;;;;;;;;;;;;;;21.03;34.43;94333.63;10496524;28;1991;-51
2022/04/06 15:31:14;;;;;;;;;;;;;;;21.03;34.23;94323.09;10511208;28;1845;-54
2022/04/06 15:41:34;;;;;;;;;;;;;;;20.99;34.19;94316.88;10496695;28;1971;-54
2022/04/06 15:46:35;;;;;;;;;;;;;;;21.00;34.19;94310.50;10519116;28;2007;-53
2022/04/06 15:51:35;;;;;;;;;;;;;;;20.98;33.89;94320.59;10516933;28;1857;-50
2022/04/06 15:56:35;;;;;;;;;;;;;;;20.95;33.88;94308.03;10490163;28;1869;-52
2022/04/06 16:01:37;;;;;;;;;;;;;;;20.90;33.95;94308.19;10495595;28;1814;-48
2022/04/06 16:06:37;;;;;;;;;;;;;;;20.89;33.65;94304.03;10490924;28;1918;-51
2022/04/06 16:11:38;;;;;;;;;;;;;;;20.86;33.48;94288.81;10497443;28;1792;-49
2022/04/06 16:16:39;;;;;;;;;;;;;;;20.85;33.67;94297.81;10493404;28;1845;-54
2022/04/06 16:21:39;;;;;;;;;;;;;;;20.88;33.46;94291.13;10495170;28;1895;-53
2022/04/06 16:26:40;;;;;;;;;;;;;;;20.82;33.48;94285.25;10487577;28;1968;-51
2022/04/06 16:31:41;;;;;;;;;;;;;;;20.84;33.38;94285.72;10510479;28;1817;-52
2022/04/06 16:36:42;;;;;;;;;;;;;;;20.80;33.46;94281.38;10509210;28;1806;-49
2022/04/06 16:41:43;;;;;;;;;;;;;;;20.82;33.17;94276.56;10510702;28;1895;-51
2022/04/06 16:46:44;;;;;;;;;;;;;;;20.84;32.95;94272.56;10513643;28;1886;-54
2022/04/06 16:57:04;;;;;;;;;;;;;;;20.83;33.24;94271.03;10504434;28;2055;-53
2022/04/06 17:02:05;;;;;;;;;;;;;;;20.82;32.90;94258.13;10495883;28;1840;-50
2022/04/06 17:07:05;;;;;;;;;;;;;;;20.86;32.77;94272.22;10489488;28;1967;-51
2022/04/06 17:12:05;;;;;;;;;;;;;;;20.85;32.73;94260.94;10503218;28;1833;-52
2022/04/06 17:17:06;;;;;;;;;;;;;;;20.85;33.03;94258.31;10497853;28;1878;-51
2022/04/06 17:22:11;;;;;;;;;;;;;;;20.83;32.74;94257.84;10499804;28;2026;-53
2022/04/06 17:27:12;;;;;;;;;;;;;;;20.84;32.84;94261.22;10494909;28;1902;-53
2022/04/06 17:32:13;;;;;;;;;;;;;;;20.83;32.67;94264.97;10513259;28;1833;-49
2022/04/06 17:37:13;;;;;;;;;;;;;;;20.83;32.49;94272.88;10511080;28;1919;-50
2022/04/06 17:42:14;;;;;;;;;;;;;;;20.87;32.60;94269.31;10517449;28;1806;-49
2022/04/06 17:47:16;;;;;;;;;;;;;;;20.86;32.34;94282.78;10520071;28;1971;-53
2022/04/06 17:52:17;;;;;;;;;;;;;;;20.90;32.17;94281.06;10500137;28;1951;-51
2022/04/06 17:57:20;;;;;;;;;;;;;;;20.86;32.45;94290.66;10492473;28;1798;-54
2022/04/06 18:02:21;;;;;;;;;;;;;;;20.87;32.44;94293.03;10513143;28;1983;-52
2022/04/06 18:07:22;;;;;;;;;;;;;;;20.84;32.34;94300.75;10505434;28;1762;-54
2022/04/06 18:17:42;;;;;;;;;;;;;;;20.87;32.34;94303.56;10510253;28;1829;-51
2022/04/06 18:22:43;;;;;;;;;;;;;;;20.89;32.51;94303.22;10512314;28;1992;-49
2022/04/06 18:27:43;;;;;;;;;;;;;;;20.96;32.56;94311.44;10505788;28;2141;-55
2022/04/06 18:32:43;;;;;;;;;;;;;;;20.99;32.92;94319.50;10489445;28;1849;-52
2022/04/06 18:37:44;;;;;;;;;;;;;;;21.04;33.13;94319.38;10485975;28;1814;-56
2022/04/06 18:42:45;;;;;;;;;;;;;;;21.05;33.27;94320.94;10508584;28;2001;-53
2022/04/06 18:47:45;;;;;;;;;;;;;;;21.02;33.39;94320.75;10497264;28;1456;-52
2022/04/06 18:52:46;;;;;;;;;;;;;;;21.02;34.11;94318.91;10527192;22;3575;-55
2022/04/06 18:57:46;;;;;;;;;;;;;;;21.03;35.16;94309.16;10512476;28;1466;-56
2022/04/06 19:02:47;;;;;;;;;;;;;;;21.11;36.24;94326.81;10490893;28;1905;-57
2022/04/06 19:07:48;;;;;;;;;;;;;;;21.10;36.28;94335.03;10478023;28;2348;-56
2022/04/06 19:12:49;;;;;;;;;;;;;;;21.08;36.99;94335.34;10482365;28;1543;-54
2022/04/06 19:17:51;;;;;;;;;;;;;;;21.05;36.84;94339.38;10488797;28;1572;-56
2022/04/06 19:22:52;;;;;;;;;;;;;;;21.05;36.96;94333.31;10479799;28;1991;-57
2022/04/06 19:27:52;;;;;;;;;;;;;;;21.02;37.18;94336.56;10479270;28;1968;-54
2022/04/06 19:32:53;;;;;;;;;;;;;;;21.02;36.88;94349.72;10475861;28;1509;-56
2022/04/06 19:37:53;;;;;;;;;;;;;;;20.98;37.12;94339.03;10481664;28;1525;-58
2022/04/06 19:42:53;;;;;;;;;;;;;;;20.96;36.98;94346.47;10463171;28;1914;-56
2022/04/06 19:47:54;;;;;;;;;;;;;;;20.96;36.73;94343.81;10476636;28;1440;-54
2022/04/06 19:52:55;;;;;;;;;;;;;;;20.94;36.72;94340.72;10454484;28;1452;-56
2022/04/06 19:57:55;;;;;;;;;;;;;;;20.93;36.67;94341.81;10461576;28;1503;-55
2022/04/06 20:02:56;;;;;;;;;;;;;;;20.96;36.54;94346.47;10462440;28;1980;-57
2022/04/06 20:07:56;;;;;;;;;;;;;;;20.98;36.34;94344.28;10474281;28;1644;-55
2022/04/06 20:12:57;;;;;;;;;;;;;;;20.97;36.23;94339.34;10461089;28;1479;-56
2022/04/06 20:17:57;;;;;;;;;;;;;;;20.93;36.54;94338.41;10458096;28;1534;-55
2022/04/06 20:22:59;;;;;;;;;;;;;;;20.95;36.03;94342.28;10458804;28;2037;-56
2022/04/06 20:27:59;;;;;;;;;;;;;;;20.98;35.96;94341.66;10458283;28;1758;-57
2022/04/06 20:33:00;;;;;;;;;;;;;;;20.99;36.49;94351.13;10478740;28;1872;-56
2022/04/06 20:38:01;;;;;;;;;;;;;;;20.99;36.10;94347.72;10480973;28;1980;-52
2022/04/06 20:43:02;;;;;;;;;;;;;;;21.02;36.06;94345.25;10474239;28;1918;-53
2022/04/06 20:48:02;;;;;;;;;;;;;;;21.01;35.89;94342.91;10475994;28;1964;-56
2022/04/06 20:53:03;;;;;;;;;;;;;;;21.03;35.98;94340.75;10461438;28;1878;-55
2022/04/06 20:58:03;;;;;;;;;;;;;;;21.03;35.77;94343.41;10485374;28;1798;-56
2022/04/06 21:03:04;;;;;;;;;;;;;;;21.08;35.57;94339.84;10478412;28;2016;-55
2022/04/06 21:08:04;;;;;;;;;;;;;;;20.98;35.82;94339.03;10489508;28;2028;-56
2022/04/06 21:13:05;;;;;;;;;;;;;;;21.02;35.66;94337.34;10458296;28;1951;-57
2022/04/06 21:18:14;;;;;;;;;;;;;;;21.01;35.65;94329.72;10477727;28;1817;-57
2022/04/06 21:23:14;;;;;;;;;;;;;;;20.98;35.72;94339.03;10476688;28;2387;-57
2022/04/06 21:28:15;;;;;;;;;;;;;;;21.02;35.39;94333.94;10475968;28;2011;-57
2022/04/06 21:33:15;;;;;;;;;;;;;;;21.02;35.03;94336.56;10463911;28;2122;-58
2022/04/06 21:38:16;;;;;;;;;;;;;;;20.98;35.46;94341.66;10475729;28;1830;-57
2022/04/06 21:43:16;;;;;;;;;;;;;;;20.99;35.43;94340.59;10470439;28;2035;-56
2022/04/06 21:48:20;;;;;;;;;;;;;;;21.02;35.20;94347.88;10470909;28;2476;-56
2022/04/06 21:53:22;;;;;;;;;;;;;;;21.00;35.17;94341.34;10471589;28;1921;-57
2022/04/06 21:58:22;;;;;;;;;;;;;;;21.01;34.85;94343.69;10459531;28;1801;-57
2022/04/06 22:03:22;;;;;;;;;;;;;;;21.03;35.15;94344.19;10466770;28;1913;-57
2022/04/06 22:08:23;;;;;;;;;;;;;;;20.98;35.06;94341.66;10472684;28;1849;-56
2022/04/06 22:13:23;;;;;;;;;;;;;;;20.97;34.96;94336.72;10454484;28;1896;-55
2022/04/06 22:18:23;;;;;;;;;;;;;;;21.01;34.94;94345.53;10459192;28;1791;-56
2022/04/06 22:23:24;;;;;;;;;;;;;;;20.99;34.81;94348.50;10474245;28;1988;-57
2022/04/06 22:28:24;;;;;;;;;;;;;;;20.98;34.75;94348.78;10455738;28;1873;-56
2022/04/06 22:33:24;;;;;;;;;;;;;;;21.00;34.72;94334.22;10476751;28;1778;-55
2022/04/06 22:38:26;;;;;;;;;;;;;;;21.02;34.68;94336.56;10473788;28;2034;-56
2022/04/06 22:43:27;;;;;;;;;;;;;;;21.04;34.35;94347.59;10454561;28;1914;-55
2022/04/06 22:48:27;;;;;;;;;;;;;;;21.01;34.65;94341.06;10459584;28;1949;-58
2022/04/06 22:53:27;;;;;;;;;;;;;;;21.00;34.57;94347.38;10477820;28;1952;-57
2022/04/06 22:58:28;;;;;;;;;;;;;;;21.00;34.26;94347.38;10459995;28;1842;-58
2022/04/06 23:03:29;;;;;;;;;;;;;;;21.00;34.29;94350.03;10473734;28;1977;-56
2022/04/06 23:08:29;;;;;;;;;;;;;;;21.01;34.24;94338.41;10460875;28;1872;-57
2022/04/06 23:13:29;;;;;;;;;;;;;;;21.01;34.10;94335.78;10472640;28;1869;-57
2022/04/06 23:18:30;;;;;;;;;;;;;;;21.03;34.27;94328.38;10471809;28;1931;-56
2022/04/06 23:23:30;;;;;;;;;;;;;;;21.03;34.13;94333.63;10473288;28;1981;-56
2022/04/06 23:28:36;;;;;;;;;;;;;;;21.02;34.17;94332.06;10478992;28;1834;-55
2022/04/06 23:33:37;;;;;;;;;;;;;;;21.02;33.96;94324.19;10464068;28;1856;-57
2022/04/06 23:38:37;;;;;;;;;;;;;;;21.00;34.10;94320.25;10462267;28;2019;-55
2022/04/06 23:43:38;;;;;;;;;;;;;;;20.98;34.08;94317.94;10479728;28;2033;-56
2022/04/06 23:48:38;;;;;;;;;;;;;;;21.01;33.92;94304.16;10476226;28;1814;-58
2022/04/06 23:53:38;;;;;;;;;;;;;;;21.00;34.04;94299.97;10461853;28;1985;-56
2022/04/06 23:58:40;;;;;;;;;;;;;;;20.99;34.04;94293.16;10477677;28;1849;-57
